createdAt,value
2018-06-09T00:00:07.806Z,46.21
2018-06-09T00:05:11.451Z,46.91
2018-06-09T00:10:15.476Z,48.22
2018-06-09T00:15:18.709Z,48.67
2018-06-09T00:20:21.922Z,49.23
2018-06-09T00:25:25.148Z,49.67
2018-06-09T00:30:28.212Z,51.01
2018-06-09T00:35:31.277Z,51.17
2018-06-09T00:40:36.197Z,50.81
2018-06-09T00:45:39.293Z,50.75
2018-06-09T00:50:42.519Z,50.08
2018-06-09T00:55:45.778Z,50.39
2018-06-09T01:00:49.447Z,50.87
2018-06-09T01:05:52.622Z,50.53
2018-06-09T01:10:55.873Z,50.18
2018-06-09T01:16:00.016Z,51.44
2018-06-09T01:21:03.146Z,51.72
2018-06-09T01:26:06.312Z,52.08
2018-06-09T01:31:09.444Z,52.19
2018-06-09T01:36:12.723Z,52.94
2018-06-09T01:41:15.984Z,53.23
2018-06-09T01:46:19.289Z,53.93
2018-06-09T01:51:22.429Z,54.60
2018-06-09T01:56:25.621Z,54.32
2018-06-09T02:01:28.714Z,55.04
2018-06-09T02:06:31.830Z,55.09
2018-06-09T02:11:35.410Z,56.58
2018-06-09T02:16:38.765Z,55.68
2018-06-09T02:21:41.839Z,55.59
2018-06-09T02:26:44.956Z,55.03
2018-06-09T02:31:48.191Z,55.25
2018-06-09T02:36:51.402Z,53.85
2018-06-09T02:41:54.822Z,54.36
2018-06-09T02:46:57.938Z,55.28
2018-06-09T02:52:01.050Z,55.89
2018-06-09T02:57:04.171Z,56.57
2018-06-09T03:02:07.382Z,54.18
2018-06-09T03:07:10.483Z,54.80
2018-06-09T03:12:13.661Z,55.09
2018-06-09T03:17:16.846Z,56.95
2018-06-09T03:22:19.961Z,57.48
2018-06-09T03:27:24.061Z,56.96
2018-06-09T03:32:27.159Z,57.58
2018-06-09T03:37:30.268Z,57.93
2018-06-09T03:42:34.376Z,58.30
2018-06-09T03:47:37.565Z,57.28
2018-06-09T03:52:40.671Z,57.94
2018-06-09T03:57:44.736Z,56.96
2018-06-09T04:02:47.818Z,58.26
2018-06-09T04:07:50.906Z,57.34
2018-06-09T04:12:53.995Z,55.57
2018-06-09T04:17:57.106Z,53.31
2018-06-09T04:23:01.143Z,50.87
2018-06-09T04:28:04.432Z,39.42
2018-06-09T04:33:08.981Z,34.60
2018-06-09T04:38:12.508Z,31.67
2018-06-09T04:43:15.640Z,31.12
2018-06-09T04:48:18.829Z,28.46
2018-06-09T04:53:21.958Z,25.94
2018-06-09T04:58:25.187Z,23.70
2018-06-09T05:03:28.311Z,24.85
2018-06-09T05:08:31.361Z,25.52
2018-06-09T05:13:34.508Z,24.46
2018-06-09T05:18:37.679Z,25.90
2018-06-09T05:23:40.877Z,22.94
2018-06-09T05:28:43.984Z,24.04
2018-06-09T05:33:47.497Z,23.65
2018-06-09T05:38:50.667Z,23.20
2018-06-09T05:43:53.792Z,21.68
2018-06-09T05:48:56.965Z,21.92
2018-06-09T05:54:00.062Z,20.60
2018-06-09T05:59:03.167Z,19.96
2018-06-09T06:04:06.221Z,19.88
2018-06-09T06:09:09.315Z,20.33
2018-06-09T06:14:12.491Z,18.98
2018-06-09T06:19:15.682Z,19.53
2018-06-09T06:24:18.839Z,18.10
2018-06-09T06:29:21.931Z,18.33
2018-06-09T06:34:25.164Z,17.24
2018-06-09T06:39:28.480Z,19.19
2018-06-09T06:44:31.593Z,17.96
2018-06-09T06:49:34.699Z,17.43
2018-06-09T06:54:37.810Z,19.29
2018-06-09T06:59:41.021Z,17.83
2018-06-09T07:04:45.088Z,17.60
2018-06-09T07:09:48.376Z,18.89
2018-06-09T07:14:51.515Z,18.53
2018-06-09T07:19:54.622Z,18.33
2018-06-09T07:24:57.869Z,20.12
2018-06-09T07:30:01.152Z,18.14
2018-06-09T07:35:04.346Z,18.85
2018-06-09T07:40:07.465Z,18.31
2018-06-09T07:45:10.514Z,17.15
2018-06-09T07:50:13.622Z,17.80
2018-06-09T07:55:16.946Z,17.35
2018-06-09T08:00:22.326Z,18.03
2018-06-09T08:05:26.041Z,17.85
2018-06-09T08:10:42.635Z,19.08
2018-06-09T08:15:59.159Z,16.85
2018-06-09T08:21:18.039Z,15.85
2018-06-09T08:26:33.562Z,18.62
2018-06-09T08:31:50.604Z,18.07
2018-06-09T08:37:08.383Z,17.47
2018-06-09T08:42:24.575Z,17.84
2018-06-09T08:47:40.768Z,17.46
2018-06-09T08:52:57.126Z,17.75
2018-06-09T08:58:13.718Z,16.60
2018-06-09T09:03:33.526Z,16.85
2018-06-09T09:08:54.399Z,14.89
2018-06-09T09:14:18.076Z,17.22
2018-06-09T09:19:37.313Z,16.30
2018-06-09T09:24:58.373Z,18.05
2018-06-09T09:30:18.826Z,15.99
2018-06-09T09:35:39.403Z,16.02
2018-06-09T09:40:59.365Z,15.55
2018-06-09T09:46:03.479Z,15.92
2018-06-09T09:51:06.669Z,16.93
2018-06-09T09:56:09.762Z,17.51
2018-06-09T10:01:12.827Z,17.04
2018-06-09T10:06:16.057Z,17.08
2018-06-09T10:11:19.257Z,18.56
2018-06-09T10:16:22.327Z,17.41
2018-06-09T10:21:25.932Z,15.66
2018-06-09T10:26:28.991Z,16.53
2018-06-09T10:31:32.093Z,17.60
2018-06-09T10:36:35.296Z,18.01
2018-06-09T10:41:38.792Z,19.20
2018-06-09T10:46:41.971Z,18.81
2018-06-09T10:51:45.278Z,18.37
2018-06-09T10:56:48.526Z,16.50
2018-06-09T11:01:51.623Z,17.77
2018-06-09T11:06:54.835Z,18.37
2018-06-09T11:11:57.975Z,17.82
2018-06-09T11:17:01.021Z,18.38
2018-06-09T11:22:04.210Z,19.55
2018-06-09T11:27:07.259Z,18.35
2018-06-09T11:32:10.379Z,19.88
2018-06-09T11:37:13.534Z,18.94
2018-06-09T11:42:16.776Z,19.92
2018-06-09T11:47:20.234Z,19.90
2018-06-09T11:52:23.473Z,17.82
2018-06-09T11:57:26.558Z,19.61
2018-06-09T12:02:29.941Z,19.24
2018-06-09T12:07:33.247Z,20.92
2018-06-09T12:12:36.358Z,20.69
2018-06-09T12:17:39.517Z,20.80
2018-06-09T12:22:42.647Z,18.82
2018-06-09T12:27:45.827Z,19.75
2018-06-09T12:32:49.072Z,19.87
2018-06-09T12:37:52.154Z,19.87
2018-06-09T12:42:55.247Z,19.78
2018-06-09T12:47:58.301Z,19.21
2018-06-09T12:53:01.383Z,19.05
2018-06-09T12:58:04.493Z,19.62
2018-06-09T13:03:07.812Z,19.38
2018-06-09T13:08:17.600Z,19.20
2018-06-09T13:13:20.776Z,19.88
2018-06-09T13:18:23.874Z,21.42
2018-06-09T13:23:26.938Z,20.63
2018-06-09T13:28:30.277Z,20.67
2018-06-09T13:33:33.405Z,19.36
2018-06-09T13:38:36.534Z,19.61
2018-06-09T13:43:39.612Z,19.69
2018-06-09T13:48:42.705Z,20.02
2018-06-09T13:53:45.849Z,21.97
2018-06-09T13:58:49.077Z,23.07
2018-06-09T14:03:52.215Z,21.40
2018-06-09T14:08:55.842Z,21.39
2018-06-09T14:13:58.946Z,22.00
2018-06-09T14:19:02.043Z,22.19
2018-06-09T14:24:05.171Z,21.06
2018-06-09T14:29:08.429Z,19.88
2018-06-09T14:34:11.619Z,20.50
2018-06-09T14:39:14.898Z,20.29
2018-06-09T14:44:18.141Z,20.71
2018-06-09T14:49:22.827Z,22.67
2018-06-09T14:54:26.144Z,23.42
2018-06-09T14:59:29.275Z,24.35
2018-06-09T15:04:33.046Z,21.65
2018-06-09T15:09:36.131Z,22.76
2018-06-09T15:14:39.316Z,22.26
2018-06-09T15:19:42.441Z,21.26
2018-06-09T15:24:45.957Z,20.74
2018-06-09T15:29:49.206Z,20.71
2018-06-09T15:34:52.562Z,22.08
2018-06-09T15:39:55.720Z,20.36
2018-06-09T15:44:58.886Z,21.72
2018-06-09T15:50:02.006Z,24.03
2018-06-09T15:55:05.157Z,25.39
2018-06-09T16:00:08.246Z,25.41
2018-06-09T16:05:11.605Z,24.25
2018-06-09T16:10:14.744Z,24.23
2018-06-09T16:15:17.945Z,22.71
2018-06-09T16:20:21.267Z,22.99
2018-06-09T16:25:24.517Z,22.42
2018-06-09T16:30:27.728Z,23.82
2018-06-09T16:35:30.890Z,23.30
2018-06-09T16:40:34.008Z,23.20
2018-06-09T16:45:37.251Z,22.82
2018-06-09T16:50:40.445Z,22.43
2018-06-09T16:55:43.608Z,22.98
2018-06-09T17:00:46.945Z,23.53
2018-06-09T17:05:50.136Z,23.39
2018-06-09T17:10:53.799Z,24.08
2018-06-09T17:15:57.013Z,21.79
2018-06-09T17:21:00.198Z,24.57
2018-06-09T17:26:03.365Z,25.16
2018-06-09T17:31:06.569Z,25.26
2018-06-09T17:36:09.696Z,25.68
2018-06-09T17:41:12.773Z,26.01
2018-06-09T17:46:16.596Z,27.42
2018-06-09T17:51:19.796Z,29.29
2018-06-09T17:56:23.045Z,29.92
2018-06-09T18:01:26.194Z,34.17
2018-06-09T18:06:29.412Z,35.97
2018-06-09T18:11:32.549Z,37.47
2018-06-09T18:16:35.713Z,38.02
2018-06-09T18:21:38.910Z,37.77
2018-06-09T18:26:42.068Z,40.29
2018-06-09T18:31:45.299Z,41.19
2018-06-09T18:36:48.539Z,42.43
2018-06-09T18:41:51.779Z,43.54
2018-06-09T18:46:55.129Z,43.76
2018-06-09T18:51:58.336Z,44.75
2018-06-09T18:57:01.413Z,45.75
2018-06-09T19:02:04.680Z,46.44
2018-06-09T19:07:07.804Z,46.75
2018-06-09T19:12:10.939Z,47.54
2018-06-09T19:17:14.707Z,48.48
2018-06-09T19:22:18.064Z,47.54
2018-06-09T19:27:21.490Z,49.01
2018-06-09T19:32:24.931Z,49.96
2018-06-09T19:37:28.224Z,50.19
2018-06-09T19:42:37.894Z,50.83
2018-06-09T19:47:41.503Z,50.39
2018-06-09T19:52:48.983Z,50.83
2018-06-09T19:57:54.908Z,51.24
2018-06-09T20:02:59.835Z,51.73
2018-06-09T20:08:05.015Z,52.13
2018-06-09T20:13:08.265Z,52.46
2018-06-09T20:18:11.371Z,53.69
2018-06-09T20:23:17.266Z,53.97
2018-06-09T20:28:26.322Z,55.38
2018-06-09T20:33:34.085Z,55.08
2018-06-09T20:38:38.370Z,57.17
2018-06-09T20:43:41.593Z,56.62
2018-06-09T20:48:44.870Z,56.60
2018-06-09T20:53:54.335Z,57.67
2018-06-09T20:58:57.992Z,58.36
2018-06-09T21:04:01.177Z,58.69
2018-06-09T21:09:06.507Z,58.89
2018-06-09T21:14:09.656Z,59.79
2018-06-09T21:19:12.731Z,60.01
2018-06-09T21:24:18.739Z,60.08
2018-06-09T21:29:22.143Z,60.99
2018-06-09T21:34:36.489Z,60.73
2018-06-09T21:39:39.569Z,61.17
2018-06-09T21:44:42.842Z,61.98
2018-06-09T21:49:45.978Z,62.41
2018-06-09T21:54:50.880Z,62.28
2018-06-09T21:59:57.351Z,63.42
2018-06-09T22:05:02.039Z,63.55
2018-06-09T22:10:06.273Z,63.85
2018-06-09T22:15:23.305Z,64.23
2018-06-09T22:20:39.565Z,64.69
2018-06-09T22:25:57.186Z,65.17
2018-06-09T22:31:01.029Z,64.64
2018-06-09T22:36:04.361Z,66.32
2018-06-09T22:41:07.448Z,66.48
2018-06-09T22:46:10.635Z,67.03
2018-06-09T22:51:13.697Z,68.16
2018-06-09T22:56:16.903Z,68.77
2018-06-09T23:01:20.106Z,69.34
2018-06-09T23:06:23.225Z,68.53
2018-06-09T23:11:26.418Z,69.25
2018-06-09T23:16:29.489Z,69.85
2018-06-09T23:21:32.578Z,71.30
2018-06-09T23:26:35.661Z,71.92
2018-06-09T23:31:38.806Z,71.35
2018-06-09T23:36:42.134Z,72.01
2018-06-09T23:41:46.476Z,72.38
2018-06-09T23:46:49.621Z,72.04
2018-06-09T23:51:52.709Z,72.16
2018-06-09T23:56:55.801Z,72.94
